sensor_id;sensor_type;location;lat;lon;timestamp;P1;durP1;ratioP1;P2;durP2;ratioP2
52964;SDS011;42923;53.220;6.528;2023-05-20T00:01:21;10.05;;;4.95;;
52964;SDS011;42923;53.220;6.528;2023-05-20T00:03:47;14.00;;;5.43;;
52964;SDS011;42923;53.220;6.528;2023-05-20T00:06:13;12.60;;;5.88;;
52964;SDS011;42923;53.220;6.528;2023-05-20T00:08:38;13.15;;;5.82;;
52964;SDS011;42923;53.220;6.528;2023-05-20T00:11:04;13.63;;;4.93;;
52964;SDS011;42923;53.220;6.528;2023-05-20T00:13:30;11.18;;;5.47;;
52964;SDS011;42923;53.220;6.528;2023-05-20T00:15:56;11.85;;;4.85;;
52964;SDS011;42923;53.220;6.528;2023-05-20T00:18:21;11.90;;;5.35;;
52964;SDS011;42923;53.220;6.528;2023-05-20T00:20:47;15.48;;;5.90;;
52964;SDS011;42923;53.220;6.528;2023-05-20T00:23:12;14.32;;;5.25;;
52964;SDS011;42923;53.220;6.528;2023-05-20T00:25:38;12.20;;;6.13;;
52964;SDS011;42923;53.220;6.528;2023-05-20T00:28:05;12.98;;;5.93;;
52964;SDS011;42923;53.220;6.528;2023-05-20T00:30:30;17.45;;;5.65;;
52964;SDS011;42923;53.220;6.528;2023-05-20T00:32:56;14.68;;;6.15;;
52964;SDS011;42923;53.220;6.528;2023-05-20T00:35:22;15.20;;;5.93;;
52964;SDS011;42923;53.220;6.528;2023-05-20T00:37:48;13.75;;;6.15;;
52964;SDS011;42923;53.220;6.528;2023-05-20T00:40:13;10.95;;;5.72;;
52964;SDS011;42923;53.220;6.528;2023-05-20T00:42:40;15.93;;;5.72;;
52964;SDS011;42923;53.220;6.528;2023-05-20T00:45:06;11.90;;;6.07;;
52964;SDS011;42923;53.220;6.528;2023-05-20T00:47:32;12.23;;;5.53;;
52964;SDS011;42923;53.220;6.528;2023-05-20T00:50:00;8.40;;;5.38;;
52964;SDS011;42923;53.220;6.528;2023-05-20T00:52:30;11.95;;;5.13;;
52964;SDS011;42923;53.220;6.528;2023-05-20T00:54:57;10.85;;;5.20;;
52964;SDS011;42923;53.220;6.528;2023-05-20T00:57:23;12.05;;;5.15;;
52964;SDS011;42923;53.220;6.528;2023-05-20T00:59:50;12.63;;;7.10;;
52964;SDS011;42923;53.220;6.528;2023-05-20T01:02:16;15.05;;;5.47;;
52964;SDS011;42923;53.220;6.528;2023-05-20T01:04:43;11.00;;;5.15;;
52964;SDS011;42923;53.220;6.528;2023-05-20T01:07:11;16.10;;;6.20;;
52964;SDS011;42923;53.220;6.528;2023-05-20T01:09:38;10.98;;;5.45;;
52964;SDS011;42923;53.220;6.528;2023-05-20T01:12:15;12.48;;;5.50;;
52964;SDS011;42923;53.220;6.528;2023-05-20T01:14:53;13.48;;;6.03;;
52964;SDS011;42923;53.220;6.528;2023-05-20T01:17:26;9.27;;;3.85;;
52964;SDS011;42923;53.220;6.528;2023-05-20T01:19:55;6.95;;;4.43;;
52964;SDS011;42923;53.220;6.528;2023-05-20T01:22:24;10.40;;;5.15;;
52964;SDS011;42923;53.220;6.528;2023-05-20T01:24:51;12.38;;;5.63;;
52964;SDS011;42923;53.220;6.528;2023-05-20T01:27:17;12.13;;;5.85;;
52964;SDS011;42923;53.220;6.528;2023-05-20T01:29:48;11.43;;;5.07;;
52964;SDS011;42923;53.220;6.528;2023-05-20T01:32:18;9.95;;;5.63;;
52964;SDS011;42923;53.220;6.528;2023-05-20T01:34:49;7.80;;;5.38;;
52964;SDS011;42923;53.220;6.528;2023-05-20T01:37:16;9.18;;;5.22;;
52964;SDS011;42923;53.220;6.528;2023-05-20T01:39:43;9.18;;;5.40;;
52964;SDS011;42923;53.220;6.528;2023-05-20T01:42:10;11.93;;;6.00;;
52964;SDS011;42923;53.220;6.528;2023-05-20T01:44:38;10.57;;;5.20;;
52964;SDS011;42923;53.220;6.528;2023-05-20T01:47:04;9.65;;;4.75;;
52964;SDS011;42923;53.220;6.528;2023-05-20T01:49:30;12.80;;;5.78;;
52964;SDS011;42923;53.220;6.528;2023-05-20T01:51:56;11.65;;;5.28;;
52964;SDS011;42923;53.220;6.528;2023-05-20T01:54:22;8.13;;;5.43;;
52964;SDS011;42923;53.220;6.528;2023-05-20T01:56:48;10.93;;;5.53;;
52964;SDS011;42923;53.220;6.528;2023-05-20T01:59:14;7.90;;;4.70;;
52964;SDS011;42923;53.220;6.528;2023-05-20T02:01:40;11.18;;;5.45;;
52964;SDS011;42923;53.220;6.528;2023-05-20T02:04:05;9.68;;;4.72;;
52964;SDS011;42923;53.220;6.528;2023-05-20T02:06:31;13.15;;;5.50;;
52964;SDS011;42923;53.220;6.528;2023-05-20T02:08:57;10.80;;;5.68;;
52964;SDS011;42923;53.220;6.528;2023-05-20T02:11:22;11.02;;;4.75;;
52964;SDS011;42923;53.220;6.528;2023-05-20T02:13:49;14.98;;;5.15;;
52964;SDS011;42923;53.220;6.528;2023-05-20T02:16:15;9.02;;;5.32;;
52964;SDS011;42923;53.220;6.528;2023-05-20T02:18:41;10.10;;;5.78;;
52964;SDS011;42923;53.220;6.528;2023-05-20T02:21:08;9.43;;;5.55;;
52964;SDS011;42923;53.220;6.528;2023-05-20T02:23:34;10.93;;;5.20;;
52964;SDS011;42923;53.220;6.528;2023-05-20T02:25:59;15.23;;;5.53;;
52964;SDS011;42923;53.220;6.528;2023-05-20T02:28:26;10.20;;;5.15;;
52964;SDS011;42923;53.220;6.528;2023-05-20T02:30:53;11.55;;;5.32;;
52964;SDS011;42923;53.220;6.528;2023-05-20T02:33:19;7.85;;;4.25;;
52964;SDS011;42923;53.220;6.528;2023-05-20T02:35:45;7.57;;;4.78;;
52964;SDS011;42923;53.220;6.528;2023-05-20T02:38:12;6.28;;;4.40;;
52964;SDS011;42923;53.220;6.528;2023-05-20T02:40:38;7.13;;;3.90;;
52964;SDS011;42923;53.220;6.528;2023-05-20T02:43:04;8.23;;;4.63;;
52964;SDS011;42923;53.220;6.528;2023-05-20T02:45:32;14.00;;;6.13;;
52964;SDS011;42923;53.220;6.528;2023-05-20T02:47:58;8.98;;;4.72;;
52964;SDS011;42923;53.220;6.528;2023-05-20T02:50:24;10.82;;;5.05;;
52964;SDS011;42923;53.220;6.528;2023-05-20T02:52:50;8.10;;;4.95;;
52964;SDS011;42923;53.220;6.528;2023-05-20T02:55:16;7.90;;;4.80;;
52964;SDS011;42923;53.220;6.528;2023-05-20T02:57:42;9.07;;;4.55;;
52964;SDS011;42923;53.220;6.528;2023-05-20T03:00:09;8.32;;;4.50;;
52964;SDS011;42923;53.220;6.528;2023-05-20T03:02:36;8.93;;;4.53;;
52964;SDS011;42923;53.220;6.528;2023-05-20T03:05:02;8.13;;;4.38;;
52964;SDS011;42923;53.220;6.528;2023-05-20T03:07:29;6.30;;;3.72;;
52964;SDS011;42923;53.220;6.528;2023-05-20T03:09:56;5.63;;;4.25;;
52964;SDS011;42923;53.220;6.528;2023-05-20T03:12:23;11.82;;;3.72;;
52964;SDS011;42923;53.220;6.528;2023-05-20T03:14:51;5.05;;;3.63;;
52964;SDS011;42923;53.220;6.528;2023-05-20T03:17:19;4.47;;;3.47;;
52964;SDS011;42923;53.220;6.528;2023-05-20T03:19:46;6.75;;;4.32;;
52964;SDS011;42923;53.220;6.528;2023-05-20T03:22:11;7.82;;;4.32;;
52964;SDS011;42923;53.220;6.528;2023-05-20T03:24:37;7.35;;;4.18;;
52964;SDS011;42923;53.220;6.528;2023-05-20T03:27:03;8.02;;;3.75;;
52964;SDS011;42923;53.220;6.528;2023-05-20T03:29:33;6.40;;;3.85;;
52964;SDS011;42923;53.220;6.528;2023-05-20T03:31:59;5.53;;;3.60;;
52964;SDS011;42923;53.220;6.528;2023-05-20T03:34:25;12.23;;;3.67;;
52964;SDS011;42923;53.220;6.528;2023-05-20T03:36:52;6.47;;;3.35;;
52964;SDS011;42923;53.220;6.528;2023-05-20T03:39:18;9.50;;;3.80;;
52964;SDS011;42923;53.220;6.528;2023-05-20T03:41:44;4.78;;;3.15;;
52964;SDS011;42923;53.220;6.528;2023-05-20T03:44:10;4.70;;;3.33;;
52964;SDS011;42923;53.220;6.528;2023-05-20T03:46:37;6.15;;;3.75;;
52964;SDS011;42923;53.220;6.528;2023-05-20T03:49:02;8.85;;;3.58;;
52964;SDS011;42923;53.220;6.528;2023-05-20T03:51:30;5.30;;;2.80;;
52964;SDS011;42923;53.220;6.528;2023-05-20T03:54:02;4.85;;;3.42;;
52964;SDS011;42923;53.220;6.528;2023-05-20T03:56:28;4.65;;;2.97;;
52964;SDS011;42923;53.220;6.528;2023-05-20T03:58:53;6.13;;;3.28;;
52964;SDS011;42923;53.220;6.528;2023-05-20T04:01:19;3.70;;;3.22;;
52964;SDS011;42923;53.220;6.528;2023-05-20T04:03:45;5.80;;;3.47;;
52964;SDS011;42923;53.220;6.528;2023-05-20T04:06:12;3.88;;;2.92;;
52964;SDS011;42923;53.220;6.528;2023-05-20T04:08:38;4.30;;;3.15;;
52964;SDS011;42923;53.220;6.528;2023-05-20T04:11:04;6.25;;;3.13;;
52964;SDS011;42923;53.220;6.528;2023-05-20T04:13:30;3.92;;;2.92;;
52964;SDS011;42923;53.220;6.528;2023-05-20T04:15:56;6.95;;;3.55;;
52964;SDS011;42923;53.220;6.528;2023-05-20T04:18:22;6.57;;;2.92;;
52964;SDS011;42923;53.220;6.528;2023-05-20T04:20:47;5.68;;;3.00;;
52964;SDS011;42923;53.220;6.528;2023-05-20T04:23:14;5.32;;;3.00;;
52964;SDS011;42923;53.220;6.528;2023-05-20T04:25:40;3.33;;;2.47;;
52964;SDS011;42923;53.220;6.528;2023-05-20T04:28:06;4.47;;;2.58;;
52964;SDS011;42923;53.220;6.528;2023-05-20T04:30:34;3.85;;;2.70;;
52964;SDS011;42923;53.220;6.528;2023-05-20T04:33:00;4.05;;;2.30;;
52964;SDS011;42923;53.220;6.528;2023-05-20T04:35:30;5.40;;;2.67;;
52964;SDS011;42923;53.220;6.528;2023-05-20T04:38:01;4.97;;;3.00;;
52964;SDS011;42923;53.220;6.528;2023-05-20T04:40:27;5.05;;;2.83;;
52964;SDS011;42923;53.220;6.528;2023-05-20T04:42:53;3.13;;;2.75;;
52964;SDS011;42923;53.220;6.528;2023-05-20T04:45:20;3.28;;;2.10;;
52964;SDS011;42923;53.220;6.528;2023-05-20T04:47:47;3.03;;;2.33;;
52964;SDS011;42923;53.220;6.528;2023-05-20T04:50:13;3.90;;;2.58;;
52964;SDS011;42923;53.220;6.528;2023-05-20T04:52:40;7.15;;;2.28;;
52964;SDS011;42923;53.220;6.528;2023-05-20T04:55:08;6.43;;;2.33;;
52964;SDS011;42923;53.220;6.528;2023-05-20T04:57:35;4.93;;;2.75;;
52964;SDS011;42923;53.220;6.528;2023-05-20T05:00:04;4.15;;;2.13;;
52964;SDS011;42923;53.220;6.528;2023-05-20T05:02:32;4.07;;;2.08;;
52964;SDS011;42923;53.220;6.528;2023-05-20T05:04:58;2.17;;;1.65;;
52964;SDS011;42923;53.220;6.528;2023-05-20T05:07:24;5.45;;;2.00;;
52964;SDS011;42923;53.220;6.528;2023-05-20T05:09:50;4.50;;;2.35;;
52964;SDS011;42923;53.220;6.528;2023-05-20T05:12:15;2.97;;;1.95;;
52964;SDS011;42923;53.220;6.528;2023-05-20T05:14:42;6.35;;;2.00;;
52964;SDS011;42923;53.220;6.528;2023-05-20T05:17:08;4.32;;;2.30;;
52964;SDS011;42923;53.220;6.528;2023-05-20T05:19:34;11.15;;;1.92;;
52964;SDS011;42923;53.220;6.528;2023-05-20T05:22:01;2.92;;;2.08;;
52964;SDS011;42923;53.220;6.528;2023-05-20T05:24:28;6.65;;;1.90;;
52964;SDS011;42923;53.220;6.528;2023-05-20T05:26:54;7.55;;;2.03;;
52964;SDS011;42923;53.220;6.528;2023-05-20T05:29:20;2.97;;;1.88;;
52964;SDS011;42923;53.220;6.528;2023-05-20T05:31:46;5.13;;;1.88;;
52964;SDS011;42923;53.220;6.528;2023-05-20T05:34:12;3.88;;;1.70;;
52964;SDS011;42923;53.220;6.528;2023-05-20T05:36:38;5.45;;;1.88;;
52964;SDS011;42923;53.220;6.528;2023-05-20T05:39:05;3.15;;;2.10;;
52964;SDS011;42923;53.220;6.528;2023-05-20T05:41:31;4.15;;;1.92;;
52964;SDS011;42923;53.220;6.528;2023-05-20T05:43:57;5.40;;;1.80;;
52964;SDS011;42923;53.220;6.528;2023-05-20T05:46:24;4.45;;;1.70;;
52964;SDS011;42923;53.220;6.528;2023-05-20T05:48:50;1.67;;;1.40;;
52964;SDS011;42923;53.220;6.528;2023-05-20T05:51:17;3.35;;;1.83;;
52964;SDS011;42923;53.220;6.528;2023-05-20T05:53:43;3.38;;;1.88;;
52964;SDS011;42923;53.220;6.528;2023-05-20T05:56:09;3.55;;;2.00;;
52964;SDS011;42923;53.220;6.528;2023-05-20T05:58:36;5.70;;;1.85;;
52964;SDS011;42923;53.220;6.528;2023-05-20T06:01:04;4.18;;;1.60;;
52964;SDS011;42923;53.220;6.528;2023-05-20T06:03:29;2.33;;;1.42;;
52964;SDS011;42923;53.220;6.528;2023-05-20T06:05:55;3.08;;;2.33;;
52964;SDS011;42923;53.220;6.528;2023-05-20T06:08:22;1.67;;;1.52;;
52964;SDS011;42923;53.220;6.528;2023-05-20T06:10:48;3.08;;;1.85;;
52964;SDS011;42923;53.220;6.528;2023-05-20T06:13:15;3.08;;;1.95;;
52964;SDS011;42923;53.220;6.528;2023-05-20T06:15:41;2.03;;;1.20;;
52964;SDS011;42923;53.220;6.528;2023-05-20T06:18:07;4.20;;;1.90;;
52964;SDS011;42923;53.220;6.528;2023-05-20T06:20:33;2.53;;;1.60;;
52964;SDS011;42923;53.220;6.528;2023-05-20T06:22:58;8.40;;;2.70;;
52964;SDS011;42923;53.220;6.528;2023-05-20T06:25:32;7.90;;;1.90;;
52964;SDS011;42923;53.220;6.528;2023-05-20T06:27:57;5.38;;;1.83;;
52964;SDS011;42923;53.220;6.528;2023-05-20T06:30:23;2.95;;;1.55;;
52964;SDS011;42923;53.220;6.528;2023-05-20T06:32:49;3.05;;;1.80;;
52964;SDS011;42923;53.220;6.528;2023-05-20T06:35:15;6.10;;;2.05;;
52964;SDS011;42923;53.220;6.528;2023-05-20T06:37:41;3.45;;;1.92;;
52964;SDS011;42923;53.220;6.528;2023-05-20T06:40:07;5.00;;;1.35;;
52964;SDS011;42923;53.220;6.528;2023-05-20T06:42:35;4.30;;;1.50;;
52964;SDS011;42923;53.220;6.528;2023-05-20T06:45:02;1.45;;;1.00;;
52964;SDS011;42923;53.220;6.528;2023-05-20T06:47:39;4.03;;;1.50;;
52964;SDS011;42923;53.220;6.528;2023-05-20T06:50:06;2.95;;;1.85;;
52964;SDS011;42923;53.220;6.528;2023-05-20T06:52:32;3.70;;;1.83;;
52964;SDS011;42923;53.220;6.528;2023-05-20T06:54:58;3.80;;;1.73;;
52964;SDS011;42923;53.220;6.528;2023-05-20T06:57:24;2.67;;;1.67;;
52964;SDS011;42923;53.220;6.528;2023-05-20T06:59:50;1.70;;;1.40;;
52964;SDS011;42923;53.220;6.528;2023-05-20T07:02:17;4.28;;;1.63;;
52964;SDS011;42923;53.220;6.528;2023-05-20T07:04:43;3.05;;;1.73;;
52964;SDS011;42923;53.220;6.528;2023-05-20T07:07:09;7.03;;;1.40;;
52964;SDS011;42923;53.220;6.528;2023-05-20T07:09:35;3.35;;;1.73;;
52964;SDS011;42923;53.220;6.528;2023-05-20T07:12:01;4.07;;;1.55;;
52964;SDS011;42923;53.220;6.528;2023-05-20T07:14:28;2.40;;;1.50;;
52964;SDS011;42923;53.220;6.528;2023-05-20T07:16:54;4.55;;;1.70;;
52964;SDS011;42923;53.220;6.528;2023-05-20T07:19:20;2.65;;;1.63;;
52964;SDS011;42923;53.220;6.528;2023-05-20T07:21:46;3.15;;;1.60;;
52964;SDS011;42923;53.220;6.528;2023-05-20T07:24:33;1.90;;;1.33;;
52964;SDS011;42923;53.220;6.528;2023-05-20T07:27:01;4.85;;;2.78;;
52964;SDS011;42923;53.220;6.528;2023-05-20T07:29:28;3.83;;;1.40;;
52964;SDS011;42923;53.220;6.528;2023-05-20T07:31:53;2.47;;;1.60;;
52964;SDS011;42923;53.220;6.528;2023-05-20T07:34:19;6.30;;;2.10;;
52964;SDS011;42923;53.220;6.528;2023-05-20T07:36:46;3.97;;;1.63;;
52964;SDS011;42923;53.220;6.528;2023-05-20T07:39:14;3.55;;;1.85;;
52964;SDS011;42923;53.220;6.528;2023-05-20T07:41:40;3.05;;;1.70;;
52964;SDS011;42923;53.220;6.528;2023-05-20T07:44:06;2.28;;;1.75;;
52964;SDS011;42923;53.220;6.528;2023-05-20T07:46:38;2.10;;;1.20;;
52964;SDS011;42923;53.220;6.528;2023-05-20T07:49:05;6.32;;;2.00;;
52964;SDS011;42923;53.220;6.528;2023-05-20T07:51:32;2.00;;;1.60;;
52964;SDS011;42923;53.220;6.528;2023-05-20T07:53:58;4.20;;;1.95;;
52964;SDS011;42923;53.220;6.528;2023-05-20T07:56:24;2.00;;;1.50;;
52964;SDS011;42923;53.220;6.528;2023-05-20T07:58:55;2.58;;;1.83;;
52964;SDS011;42923;53.220;6.528;2023-05-20T08:01:28;2.83;;;1.58;;
52964;SDS011;42923;53.220;6.528;2023-05-20T08:03:55;2.28;;;1.63;;
52964;SDS011;42923;53.220;6.528;2023-05-20T08:06:23;8.60;;;1.70;;
52964;SDS011;42923;53.220;6.528;2023-05-20T08:08:49;3.78;;;1.45;;
52964;SDS011;42923;53.220;6.528;2023-05-20T08:11:21;3.97;;;2.10;;
52964;SDS011;42923;53.220;6.528;2023-05-20T08:13:47;3.60;;;1.60;;
52964;SDS011;42923;53.220;6.528;2023-05-20T08:16:14;2.67;;;1.50;;
52964;SDS011;42923;53.220;6.528;2023-05-20T08:18:42;6.80;;;1.83;;
52964;SDS011;42923;53.220;6.528;2023-05-20T08:21:08;4.47;;;1.77;;
52964;SDS011;42923;53.220;6.528;2023-05-20T08:23:34;7.30;;;1.35;;
52964;SDS011;42923;53.220;6.528;2023-05-20T08:26:00;3.15;;;1.83;;
52964;SDS011;42923;53.220;6.528;2023-05-20T08:28:28;1.63;;;1.25;;
52964;SDS011;42923;53.220;6.528;2023-05-20T08:30:56;4.70;;;1.90;;
52964;SDS011;42923;53.220;6.528;2023-05-20T08:33:22;2.25;;;1.50;;
52964;SDS011;42923;53.220;6.528;2023-05-20T08:35:48;7.13;;;1.90;;
52964;SDS011;42923;53.220;6.528;2023-05-20T08:38:14;1.90;;;1.30;;
52964;SDS011;42923;53.220;6.528;2023-05-20T08:40:40;2.78;;;1.80;;
52964;SDS011;42923;53.220;6.528;2023-05-20T08:43:06;2.53;;;1.48;;
52964;SDS011;42923;53.220;6.528;2023-05-20T08:45:32;3.90;;;1.90;;
52964;SDS011;42923;53.220;6.528;2023-05-20T08:48:03;6.03;;;1.65;;
52964;SDS011;42923;53.220;6.528;2023-05-20T08:50:30;6.95;;;1.83;;
52964;SDS011;42923;53.220;6.528;2023-05-20T08:52:56;2.33;;;1.25;;
52964;SDS011;42923;53.220;6.528;2023-05-20T08:55:31;10.13;;;1.60;;
52964;SDS011;42923;53.220;6.528;2023-05-20T08:58:10;2.53;;;1.80;;
52964;SDS011;42923;53.220;6.528;2023-05-20T09:00:36;4.70;;;1.40;;
52964;SDS011;42923;53.220;6.528;2023-05-20T09:03:02;2.03;;;1.70;;
52964;SDS011;42923;53.220;6.528;2023-05-20T09:05:28;4.45;;;2.33;;
52964;SDS011;42923;53.220;6.528;2023-05-20T09:08:06;3.13;;;2.00;;
52964;SDS011;42923;53.220;6.528;2023-05-20T09:10:34;3.28;;;1.38;;
52964;SDS011;42923;53.220;6.528;2023-05-20T09:13:01;3.05;;;1.50;;
52964;SDS011;42923;53.220;6.528;2023-05-20T09:15:28;5.35;;;1.70;;
52964;SDS011;42923;53.220;6.528;2023-05-20T09:17:55;4.68;;;1.73;;
52964;SDS011;42923;53.220;6.528;2023-05-20T09:20:27;6.00;;;1.40;;
52964;SDS011;42923;53.220;6.528;2023-05-20T09:22:57;3.95;;;1.60;;
52964;SDS011;42923;53.220;6.528;2023-05-20T09:25:24;4.07;;;1.75;;
52964;SDS011;42923;53.220;6.528;2023-05-20T09:27:50;4.50;;;1.60;;
52964;SDS011;42923;53.220;6.528;2023-05-20T09:30:19;2.60;;;1.63;;
52964;SDS011;42923;53.220;6.528;2023-05-20T09:32:53;4.32;;;1.50;;
52964;SDS011;42923;53.220;6.528;2023-05-20T09:35:19;3.92;;;1.60;;
52964;SDS011;42923;53.220;6.528;2023-05-20T09:37:47;9.82;;;2.95;;
52964;SDS011;42923;53.220;6.528;2023-05-20T09:40:20;3.00;;;1.35;;
52964;SDS011;42923;53.220;6.528;2023-05-20T09:43:02;4.35;;;1.75;;
52964;SDS011;42923;53.220;6.528;2023-05-20T09:45:28;5.72;;;1.40;;
52964;SDS011;42923;53.220;6.528;2023-05-20T09:47:54;6.45;;;1.95;;
52964;SDS011;42923;53.220;6.528;2023-05-20T09:50:21;5.68;;;1.65;;
52964;SDS011;42923;53.220;6.528;2023-05-20T09:52:49;4.30;;;2.10;;
52964;SDS011;42923;53.220;6.528;2023-05-20T09:55:18;5.47;;;1.63;;
52964;SDS011;42923;53.220;6.528;2023-05-20T09:57:46;4.72;;;1.52;;
52964;SDS011;42923;53.220;6.528;2023-05-20T10:00:12;4.07;;;1.65;;
52964;SDS011;42923;53.220;6.528;2023-05-20T10:02:46;4.03;;;1.55;;
52964;SDS011;42923;53.220;6.528;2023-05-20T10:10:36;6.30;;;1.85;;
52964;SDS011;42923;53.220;6.528;2023-05-20T10:18:52;2.55;;;1.80;;
52964;SDS011;42923;53.220;6.528;2023-05-20T10:21:55;4.25;;;1.75;;
52964;SDS011;42923;53.220;6.528;2023-05-20T10:24:34;12.03;;;1.97;;
52964;SDS011;42923;53.220;6.528;2023-05-20T10:27:03;3.95;;;1.98;;
52964;SDS011;42923;53.220;6.528;2023-05-20T10:32:47;3.13;;;1.83;;
52964;SDS011;42923;53.220;6.528;2023-05-20T10:35:20;1.60;;;1.50;;
52964;SDS011;42923;53.220;6.528;2023-05-20T10:37:50;3.42;;;1.50;;
52964;SDS011;42923;53.220;6.528;2023-05-20T10:40:18;4.60;;;1.80;;
52964;SDS011;42923;53.220;6.528;2023-05-20T10:42:44;5.45;;;2.05;;
52964;SDS011;42923;53.220;6.528;2023-05-20T10:45:23;4.53;;;1.80;;
52964;SDS011;42923;53.220;6.528;2023-05-20T10:47:56;3.35;;;1.98;;
52964;SDS011;42923;53.220;6.528;2023-05-20T10:50:26;6.18;;;1.98;;
52964;SDS011;42923;53.220;6.528;2023-05-20T10:53:02;3.20;;;1.63;;
52964;SDS011;42923;53.220;6.528;2023-05-20T10:55:45;3.95;;;2.05;;
52964;SDS011;42923;53.220;6.528;2023-05-20T10:58:16;7.88;;;2.38;;
52964;SDS011;42923;53.220;6.528;2023-05-20T11:00:42;9.85;;;1.98;;
52964;SDS011;42923;53.220;6.528;2023-05-20T11:03:08;8.55;;;2.17;;
52964;SDS011;42923;53.220;6.528;2023-05-20T11:05:37;4.88;;;2.08;;
52964;SDS011;42923;53.220;6.528;2023-05-20T11:08:05;5.38;;;1.83;;
52964;SDS011;42923;53.220;6.528;2023-05-20T11:10:35;4.72;;;2.20;;
52964;SDS011;42923;53.220;6.528;2023-05-20T11:13:02;5.03;;;2.13;;
52964;SDS011;42923;53.220;6.528;2023-05-20T11:15:29;3.03;;;1.83;;
52964;SDS011;42923;53.220;6.528;2023-05-20T11:18:00;6.72;;;2.25;;
52964;SDS011;42923;53.220;6.528;2023-05-20T11:20:27;7.28;;;1.90;;
52964;SDS011;42923;53.220;6.528;2023-05-20T11:22:53;2.88;;;1.90;;
52964;SDS011;42923;53.220;6.528;2023-05-20T11:25:20;9.20;;;2.72;;
52964;SDS011;42923;53.220;6.528;2023-05-20T11:27:48;6.43;;;2.22;;
52964;SDS011;42923;53.220;6.528;2023-05-20T11:30:14;6.78;;;2.28;;
52964;SDS011;42923;53.220;6.528;2023-05-20T11:32:55;6.28;;;2.45;;
52964;SDS011;42923;53.220;6.528;2023-05-20T11:35:28;7.25;;;1.83;;
52964;SDS011;42923;53.220;6.528;2023-05-20T11:37:56;8.05;;;3.75;;
52964;SDS011;42923;53.220;6.528;2023-05-20T11:40:26;5.63;;;2.55;;
52964;SDS011;42923;53.220;6.528;2023-05-20T11:43:01;7.38;;;2.72;;
52964;SDS011;42923;53.220;6.528;2023-05-20T11:48:06;8.00;;;2.60;;
52964;SDS011;42923;53.220;6.528;2023-05-20T11:50:39;3.55;;;2.05;;
52964;SDS011;42923;53.220;6.528;2023-05-20T11:53:07;4.65;;;2.45;;
52964;SDS011;42923;53.220;6.528;2023-05-20T11:55:45;7.55;;;3.00;;
52964;SDS011;42923;53.220;6.528;2023-05-20T11:58:18;7.13;;;2.70;;
52964;SDS011;42923;53.220;6.528;2023-05-20T12:00:51;4.43;;;2.50;;
52964;SDS011;42923;53.220;6.528;2023-05-20T12:03:17;8.68;;;2.90;;
52964;SDS011;42923;53.220;6.528;2023-05-20T12:05:43;5.72;;;2.60;;
52964;SDS011;42923;53.220;6.528;2023-05-20T12:08:11;4.18;;;2.58;;
52964;SDS011;42923;53.220;6.528;2023-05-20T12:10:37;6.65;;;2.35;;
52964;SDS011;42923;53.220;6.528;2023-05-20T12:13:02;3.97;;;2.33;;
52964;SDS011;42923;53.220;6.528;2023-05-20T12:15:29;4.85;;;3.78;;
52964;SDS011;42923;53.220;6.528;2023-05-20T12:17:55;4.90;;;2.50;;
52964;SDS011;42923;53.220;6.528;2023-05-20T12:20:21;6.03;;;2.72;;
52964;SDS011;42923;53.220;6.528;2023-05-20T12:22:48;4.97;;;2.38;;
52964;SDS011;42923;53.220;6.528;2023-05-20T12:25:15;6.13;;;2.95;;
52964;SDS011;42923;53.220;6.528;2023-05-20T12:27:41;5.70;;;2.05;;
52964;SDS011;42923;53.220;6.528;2023-05-20T12:30:12;5.55;;;2.88;;
52964;SDS011;42923;53.220;6.528;2023-05-20T12:32:40;3.72;;;2.40;;
52964;SDS011;42923;53.220;6.528;2023-05-20T12:35:07;5.20;;;2.72;;
52964;SDS011;42923;53.220;6.528;2023-05-20T12:37:34;6.65;;;3.13;;
52964;SDS011;42923;53.220;6.528;2023-05-20T12:40:01;5.38;;;2.83;;
52964;SDS011;42923;53.220;6.528;2023-05-20T12:42:30;4.32;;;2.58;;
52964;SDS011;42923;53.220;6.528;2023-05-20T12:44:55;6.63;;;2.90;;
52964;SDS011;42923;53.220;6.528;2023-05-20T12:47:21;5.28;;;2.80;;
52964;SDS011;42923;53.220;6.528;2023-05-20T12:49:47;3.78;;;2.50;;
52964;SDS011;42923;53.220;6.528;2023-05-20T12:52:13;4.35;;;3.22;;
52964;SDS011;42923;53.220;6.528;2023-05-20T12:54:38;5.95;;;2.90;;
52964;SDS011;42923;53.220;6.528;2023-05-20T12:57:04;10.23;;;2.50;;
52964;SDS011;42923;53.220;6.528;2023-05-20T12:59:30;5.72;;;3.15;;
52964;SDS011;42923;53.220;6.528;2023-05-20T13:01:56;5.00;;;2.78;;
52964;SDS011;42923;53.220;6.528;2023-05-20T13:04:21;8.05;;;3.47;;
52964;SDS011;42923;53.220;6.528;2023-05-20T13:06:47;7.00;;;3.35;;
52964;SDS011;42923;53.220;6.528;2023-05-20T13:09:13;4.40;;;3.00;;
52964;SDS011;42923;53.220;6.528;2023-05-20T13:11:39;7.70;;;2.42;;
52964;SDS011;42923;53.220;6.528;2023-05-20T13:14:05;11.73;;;2.92;;
52964;SDS011;42923;53.220;6.528;2023-05-20T13:16:30;7.75;;;3.30;;
52964;SDS011;42923;53.220;6.528;2023-05-20T13:18:56;8.57;;;2.83;;
52964;SDS011;42923;53.220;6.528;2023-05-20T13:21:22;3.58;;;2.25;;
52964;SDS011;42923;53.220;6.528;2023-05-20T13:23:47;5.70;;;2.60;;
52964;SDS011;42923;53.220;6.528;2023-05-20T13:26:13;4.00;;;1.83;;
52964;SDS011;42923;53.220;6.528;2023-05-20T13:28:39;7.13;;;2.92;;
52964;SDS011;42923;53.220;6.528;2023-05-20T13:31:05;5.10;;;3.25;;
52964;SDS011;42923;53.220;6.528;2023-05-20T13:33:31;6.38;;;3.08;;
52964;SDS011;42923;53.220;6.528;2023-05-20T13:35:57;4.50;;;2.85;;
52964;SDS011;42923;53.220;6.528;2023-05-20T13:38:23;6.53;;;3.38;;
52964;SDS011;42923;53.220;6.528;2023-05-20T13:40:49;4.97;;;2.28;;
52964;SDS011;42923;53.220;6.528;2023-05-20T13:43:14;8.18;;;3.55;;
52964;SDS011;42923;53.220;6.528;2023-05-20T13:45:41;5.63;;;2.92;;
52964;SDS011;42923;53.220;6.528;2023-05-20T13:48:06;9.48;;;2.90;;
52964;SDS011;42923;53.220;6.528;2023-05-20T13:50:32;7.22;;;3.38;;
52964;SDS011;42923;53.220;6.528;2023-05-20T13:52:58;6.65;;;3.78;;
52964;SDS011;42923;53.220;6.528;2023-05-20T13:55:24;6.90;;;3.53;;
52964;SDS011;42923;53.220;6.528;2023-05-20T13:57:50;5.43;;;3.22;;
52964;SDS011;42923;53.220;6.528;2023-05-20T14:00:18;4.97;;;3.28;;
52964;SDS011;42923;53.220;6.528;2023-05-20T14:02:44;5.82;;;3.15;;
52964;SDS011;42923;53.220;6.528;2023-05-20T14:05:11;10.02;;;3.15;;
52964;SDS011;42923;53.220;6.528;2023-05-20T14:07:37;5.50;;;3.40;;
52964;SDS011;42923;53.220;6.528;2023-05-20T14:10:03;7.70;;;3.17;;
52964;SDS011;42923;53.220;6.528;2023-05-20T14:12:30;5.05;;;2.92;;
52964;SDS011;42923;53.220;6.528;2023-05-20T14:14:56;3.92;;;2.83;;
52964;SDS011;42923;53.220;6.528;2023-05-20T14:17:21;6.35;;;2.53;;
52964;SDS011;42923;53.220;6.528;2023-05-20T14:19:47;4.95;;;2.78;;
52964;SDS011;42923;53.220;6.528;2023-05-20T14:22:13;6.97;;;3.30;;
52964;SDS011;42923;53.220;6.528;2023-05-20T14:24:39;6.72;;;3.00;;
52964;SDS011;42923;53.220;6.528;2023-05-20T14:27:05;6.88;;;2.95;;
52964;SDS011;42923;53.220;6.528;2023-05-20T14:29:31;7.85;;;2.67;;
52964;SDS011;42923;53.220;6.528;2023-05-20T14:31:57;7.22;;;2.85;;
52964;SDS011;42923;53.220;6.528;2023-05-20T14:34:23;4.32;;;2.60;;
52964;SDS011;42923;53.220;6.528;2023-05-20T14:36:48;5.53;;;2.85;;
52964;SDS011;42923;53.220;6.528;2023-05-20T14:39:14;10.30;;;3.67;;
52964;SDS011;42923;53.220;6.528;2023-05-20T14:41:41;6.35;;;2.55;;
52964;SDS011;42923;53.220;6.528;2023-05-20T14:44:06;4.43;;;2.85;;
52964;SDS011;42923;53.220;6.528;2023-05-20T14:46:32;6.50;;;2.50;;
52964;SDS011;42923;53.220;6.528;2023-05-20T14:48:58;4.13;;;2.58;;
52964;SDS011;42923;53.220;6.528;2023-05-20T14:51:24;9.00;;;4.22;;
52964;SDS011;42923;53.220;6.528;2023-05-20T14:53:50;5.60;;;2.15;;
52964;SDS011;42923;53.220;6.528;2023-05-20T14:56:15;4.05;;;2.38;;
52964;SDS011;42923;53.220;6.528;2023-05-20T14:58:41;6.03;;;2.95;;
52964;SDS011;42923;53.220;6.528;2023-05-20T15:01:07;4.85;;;2.75;;
52964;SDS011;42923;53.220;6.528;2023-05-20T15:03:33;4.82;;;2.60;;